Time;durP1;ratioP1;P1;durP2;ratioP2;P2;SDS_P1;SDS_P2;PMS_P1;PMS_P2;Temp;Humidity;BMP_temperature;BMP_pressure;BME280_temperature;BME280_humidity;BME280_pressure;Samples;Min_cycle;Max_cycle;Signal;HPM_P1;HPM_P2
2022/12/21 00:01:31;;;;;;;53.00;40.20;;;;;;;1.81;67.11;100334.36;108097;1283;21954;-76
2022/12/21 00:04:08;;;;;;;52.00;41.00;;;;;;;1.79;67.08;100349.80;107930;1289;21957;-76
2022/12/21 00:06:38;;;;;;;52.30;39.50;;;;;;;1.77;67.03;100355.13;107533;1286;21962;-76
2022/12/21 00:09:12;;;;;;;50.70;39.50;;;;;;;1.73;66.93;100349.64;107750;1286;21937;-76
2022/12/21 00:11:44;;;;;;;51.80;40.70;;;;;;;1.70;67.05;100347.40;107679;1286;23691;-77
2022/12/21 00:14:13;;;;;;;52.00;39.80;;;;;;;1.66;67.10;100352.23;107771;1286;24286;-78
2022/12/21 00:16:43;;;;;;;53.00;40.50;;;;;;;1.63;67.05;100358.08;107776;1288;21943;-76
2022/12/21 00:19:16;;;;;;;47.30;36.80;;;;;;;1.63;67.09;100357.03;107936;1286;22000;-76
2022/12/21 00:21:45;;;;;;;55.10;40.60;;;;;;;1.62;67.15;100362.87;107748;1286;23717;-77
2022/12/21 00:24:15;;;;;;;52.80;40.60;;;;;;;1.60;67.15;100363.05;107419;1290;21995;-77
2022/12/21 00:26:44;;;;;;;51.40;39.70;;;;;;;1.62;67.27;100359.79;107399;1291;21969;-76
2022/12/21 00:29:14;;;;;;;51.30;38.30;;;;;;;1.62;67.24;100358.92;107253;1291;21946;-76
2022/12/21 00:31:43;;;;;;;55.30;40.70;;;;;;;1.63;67.33;100360.30;107346;1292;21948;-77
2022/12/21 00:34:17;;;;;;;51.70;39.00;;;;;;;1.64;67.34;100348.29;107269;1294;21954;-76
2022/12/21 00:36:50;;;;;;;50.10;40.10;;;;;;;1.63;67.11;100348.45;107413;1291;23721;-76
2022/12/21 00:39:19;;;;;;;54.90;40.50;;;;;;;1.63;67.12;100355.49;107548;1288;21981;-76
2022/12/21 00:41:48;;;;;;;49.90;38.30;;;;;;;1.62;67.22;100360.65;107596;1285;22217;-77
2022/12/21 00:44:18;;;;;;;51.20;40.10;;;;;;;1.61;67.31;100357.90;108032;1286;22003;-76
2022/12/21 00:46:48;;;;;;;48.00;37.70;;;;;;;1.62;67.25;100363.55;108030;1286;21951;-76
2022/12/21 00:49:22;;;;;;;58.30;41.50;;;;;;;1.61;67.26;100356.52;108074;1281;21949;-76
2022/12/21 00:51:54;;;;;;;48.70;39.20;;;;;;;1.60;67.28;100348.63;108061;1286;22845;-77
2022/12/21 00:54:23;;;;;;;56.10;42.40;;;;;;;1.57;67.29;100333.36;108009;1286;23108;-77
2022/12/21 00:56:53;;;;;;;50.30;40.00;;;;;;;1.55;67.26;100348.80;108070;1283;21953;-76
2022/12/21 00:59:22;;;;;;;46.90;34.70;;;;;;;1.53;67.25;100359.62;108097;1283;23863;-77
2022/12/21 01:01:51;;;;;;;50.30;39.30;;;;;;;1.52;67.34;100366.14;108134;1283;21983;-78
2022/12/21 01:04:21;;;;;;;54.40;39.90;;;;;;;1.50;67.37;100363.55;108055;1278;23597;-77
2022/12/21 01:06:50;;;;;;;52.20;37.30;;;;;;;1.50;67.39;100366.30;108100;1285;22320;-77
2022/12/21 01:09:19;;;;;;;50.20;38.60;;;;;;;1.48;67.29;100364.23;108046;1283;23047;-77
2022/12/21 01:11:48;;;;;;;53.70;38.80;;;;;;;1.48;67.41;100364.25;108125;1283;23672;-76
2022/12/21 01:14:18;;;;;;;50.40;38.60;;;;;;;1.48;67.34;100359.96;108027;1283;21995;-76
2022/12/21 01:16:47;;;;;;;48.70;38.30;;;;;;;1.49;67.41;100356.88;108124;1284;21954;-77
2022/12/21 01:19:16;;;;;;;51.30;39.50;;;;;;;1.50;67.48;100359.79;108106;1283;23608;-77
2022/12/21 01:21:45;;;;;;;51.90;39.80;;;;;;;1.51;67.51;100358.24;108016;1283;22000;-77
2022/12/21 01:24:14;;;;;;;51.40;39.60;;;;;;;1.49;67.43;100354.64;108025;1283;21935;-77
2022/12/21 01:26:43;;;;;;;49.60;37.40;;;;;;;1.48;67.53;100355.33;108063;1286;23611;-77
2022/12/21 01:29:16;;;;;;;49.20;38.30;;;;;;;1.49;67.61;100356.36;107896;1283;24285;-77
2022/12/21 01:31:46;;;;;;;53.00;38.20;;;;;;;1.51;67.75;100353.95;108143;1283;23013;-77
2022/12/21 01:34:15;;;;;;;54.40;39.40;;;;;;;1.50;67.67;100356.70;107986;1283;23293;-75
2022/12/21 01:36:47;;;;;;;51.10;39.60;;;;;;;1.52;67.80;100351.04;107903;1280;21952;-77
2022/12/21 01:39:16;;;;;;;49.40;37.80;;;;;;;1.53;67.74;100350.36;107545;1288;21964;-78
2022/12/21 01:41:45;;;;;;;50.20;37.70;;;;;;;1.52;67.69;100354.13;107506;1289;22720;-77
2022/12/21 01:45:02;;;;;;;50.50;38.80;;;;;;;1.53;67.77;100358.93;107304;1292;22845;-78
2022/12/21 01:47:46;;;;;;;49.10;35.40;;;;;;;1.51;67.84;100350.02;107655;1289;23052;-77
2022/12/21 01:51:03;;;;;;;50.30;38.40;;;;;;;1.53;67.85;100338.52;107544;1289;22013;-77
2022/12/21 01:53:59;;;;;;;49.10;38.20;;;;;;;1.51;67.71;100324.96;107029;1295;21961;-78
2022/12/21 01:56:33;;;;;;;49.40;37.20;;;;;;;1.48;67.71;100328.40;106929;1295;21977;-77
2022/12/21 01:59:31;;;;;;;49.40;37.00;;;;;;;1.50;67.84;100347.77;107502;1289;23684;-78
2022/12/21 02:02:07;;;;;;;52.70;37.30;;;;;;;1.53;67.92;100332.86;106687;1298;22725;-77
2022/12/21 02:04:41;;;;;;;54.40;39.70;;;;;;;1.58;67.84;100307.11;106985;1295;23890;-78
2022/12/21 02:07:11;;;;;;;52.60;39.40;;;;;;;1.61;67.78;100318.10;107039;1294;22947;-78
2022/12/21 02:09:42;;;;;;;55.20;39.00;;;;;;;1.60;67.57;100318.61;107125;1295;23113;-76
2022/12/21 02:12:16;;;;;;;46.80;37.90;;;;;;;1.58;67.54;100322.55;107090;1298;21957;-77
2022/12/21 02:14:48;;;;;;;45.60;37.40;;;;;;;1.56;67.61;100318.27;106916;1297;23052;-78
2022/12/21 02:17:52;;;;;;;52.00;39.50;;;;;;;1.57;67.77;100306.43;107059;1295;23884;-76
2022/12/21 02:20:32;;;;;;;49.20;39.40;;;;;;;1.53;67.65;100302.50;106728;1294;22016;-77
2022/12/21 02:23:39;;;;;;;52.30;38.50;;;;;;;1.48;67.60;100300.45;107154;1295;24345;-76
2022/12/21 02:26:23;;;;;;;52.60;38.10;;;;;;;1.43;67.65;100295.48;107125;1295;21945;-77
2022/12/21 02:28:57;;;;;;;54.40;39.20;;;;;;;1.42;67.80;100285.36;107123;1296;21959;-76
2022/12/21 02:32:13;;;;;;;55.10;42.10;;;;;;;1.41;67.88;100285.36;107449;1291;21961;-77
2022/12/21 02:35:15;;;;;;;49.90;37.60;;;;;;;1.38;67.83;100280.73;107473;1291;23781;-77
2022/12/21 02:38:13;;;;;;;51.00;40.20;;;;;;;1.33;67.85;100277.30;107534;1291;21959;-76
2022/12/21 02:40:58;;;;;;;53.30;39.90;;;;;;;1.30;67.97;100259.49;107966;1286;22833;-78
2022/12/21 02:46:36;;;;;;;56.60;43.10;;;;;;;1.25;67.95;100262.58;108033;1285;22007;-77
2022/12/21 02:49:14;;;;;;;53.90;38.60;;;;;;;1.22;67.91;100263.79;108137;1284;23691;-77
2022/12/21 02:51:55;;;;;;;54.10;40.60;;;;;;;1.21;68.00;100276.99;107870;1286;21944;-76
2022/12/21 02:54:25;;;;;;;55.60;42.10;;;;;;;1.21;68.07;100283.84;108113;1285;23611;-77
2022/12/21 02:56:54;;;;;;;56.90;41.30;;;;;;;1.23;68.09;100287.45;107790;1286;22005;-77
2022/12/21 02:59:31;;;;;;;57.40;42.60;;;;;;;1.25;68.08;100296.70;107809;1286;21980;-76
2022/12/21 03:02:17;;;;;;;57.30;41.90;;;;;;;1.27;68.20;100299.61;107896;1286;23124;-76
2022/12/21 03:05:17;;;;;;;57.90;43.30;;;;;;;1.30;68.14;100292.58;108089;1286;21937;-76
2022/12/21 03:08:17;;;;;;;58.10;41.50;;;;;;;1.33;68.18;100297.55;108131;1286;21916;-77
2022/12/21 03:10:55;;;;;;;55.70;40.90;;;;;;;1.36;68.23;100303.55;108049;1285;23647;-76
2022/12/21 03:13:59;;;;;;;58.60;42.70;;;;;;;1.39;68.19;100305.61;108145;1283;22196;-76
2022/12/21 03:16:48;;;;;;;56.70;39.40;;;;;;;1.42;68.30;100300.46;107441;1295;23758;-76
2022/12/21 03:19:43;;;;;;;56.00;39.90;;;;;;;1.45;68.15;100287.25;107387;1293;21970;-75
2022/12/21 03:23:05;;;;;;;58.70;42.70;;;;;;;1.46;68.20;100281.76;106939;1298;21957;-75
2022/12/21 03:26:12;;;;;;;54.40;39.80;;;;;;;1.46;68.28;100275.59;106156;1303;21957;-75
2022/12/21 03:28:45;;;;;;;55.70;41.90;;;;;;;1.46;68.12;100261.35;105992;1304;23089;-76
2022/12/21 03:31:24;;;;;;;61.50;43.10;;;;;;;1.49;68.09;100258.95;106297;1303;21954;-75
2022/12/21 03:34:06;;;;;;;57.70;42.80;;;;;;;1.50;68.12;100264.94;106278;1300;23639;-77
2022/12/21 03:37:08;;;;;;;60.20;45.40;;;;;;;1.48;68.10;100265.63;106463;1299;22007;-77
2022/12/21 03:39:44;;;;;;;57.20;43.20;;;;;;;1.48;68.06;100270.45;106149;1302;23126;-77
2022/12/21 03:42:24;;;;;;;58.50;42.80;;;;;;;1.50;68.05;100267.17;106263;1302;21973;-76
2022/12/21 03:45:04;;;;;;;52.70;41.70;;;;;;;1.53;68.07;100265.11;106460;1303;21989;-77
2022/12/21 03:48:05;;;;;;;55.60;41.20;;;;;;;1.53;68.04;100263.39;106125;1304;21971;-76
2022/12/21 03:50:42;;;;;;;58.00;41.70;;;;;;;1.49;68.18;100253.97;106437;1301;21974;-77
2022/12/21 03:53:26;;;;;;;51.90;37.80;;;;;;;1.47;68.22;100249.52;106434;1298;23713;-76
2022/12/21 03:56:00;;;;;;;56.90;43.40;;;;;;;1.42;68.11;100254.84;106908;1295;23834;-77
2022/12/21 03:58:31;;;;;;;59.40;43.80;;;;;;;1.37;68.05;100251.25;106167;1302;24405;-77
2022/12/21 04:01:19;;;;;;;59.90;43.80;;;;;;;1.34;68.12;100260.34;106377;1298;22000;-77
2022/12/21 04:03:58;;;;;;;55.50;42.90;;;;;;;1.33;68.14;100261.20;106879;1297;21954;-77
2022/12/21 04:06:33;;;;;;;56.60;42.50;;;;;;;1.33;68.29;100254.34;106829;1297;23705;-76
2022/12/21 04:09:06;;;;;;;58.60;45.70;;;;;;;1.33;68.33;100250.73;106666;1298;23077;-77
2022/12/21 04:14:24;;;;;;;57.80;44.50;;;;;;;1.35;68.27;100268.56;107165;1295;21964;-77
2022/12/21 04:16:53;;;;;;;50.20;40.90;;;;;;;1.37;68.35;100267.71;107590;1287;22017;-77
2022/12/21 04:28:06;;;;;;;56.40;43.00;;;;;;;1.41;68.34;100269.77;108035;1285;23600;-77
2022/12/21 04:30:56;;;;;;;58.70;41.30;;;;;;;1.45;68.40;100261.19;108166;1286;21998;-78
2022/12/21 04:33:29;;;;;;;66.80;47.10;;;;;;;1.49;68.47;100252.94;108023;1286;23802;-77
2022/12/21 04:38:46;;;;;;;59.00;45.70;;;;;;;1.55;68.44;100245.03;108024;1283;21938;-77
2022/12/21 04:41:15;;;;;;;59.20;44.60;;;;;;;1.55;68.34;100238.69;108102;1286;23063;-78
2022/12/21 04:43:45;;;;;;;57.20;42.60;;;;;;;1.57;68.37;100232.34;107976;1285;21938;-78
2022/12/21 04:46:15;;;;;;;58.30;42.70;;;;;;;1.59;68.40;100229.76;108017;1283;22086;-78
2022/12/21 04:48:46;;;;;;;55.20;42.60;;;;;;;1.59;68.26;100229.09;107846;1284;21960;-78
2022/12/21 04:51:22;;;;;;;55.30;41.80;;;;;;;1.59;68.32;100226.33;107822;1286;22818;-77
2022/12/21 04:53:53;;;;;;;51.40;41.40;;;;;;;1.60;68.33;100230.27;108052;1283;21952;-78
2022/12/21 04:56:27;;;;;;;60.30;43.80;;;;;;;1.61;68.28;100229.75;108063;1285;21940;-77
2022/12/21 04:58:58;;;;;;;63.00;44.40;;;;;;;1.61;68.28;100226.49;108132;1283;22609;-77
2022/12/21 05:01:27;;;;;;;54.60;41.20;;;;;;;1.63;68.35;100224.27;108035;1283;21937;-78
2022/12/21 05:03:58;;;;;;;53.40;41.20;;;;;;;1.62;68.29;100214.48;107829;1285;23613;-77
2022/12/21 05:06:29;;;;;;;70.00;49.60;;;;;;;1.62;68.21;100208.99;108129;1283;23074;-78
2022/12/21 05:08:59;;;;;;;61.00;42.00;;;;;;;1.62;68.24;100208.48;108092;1286;21955;-77
2022/12/21 05:11:28;;;;;;;54.00;42.30;;;;;;;1.63;68.35;100210.02;108038;1280;23595;-76
2022/12/21 05:13:58;;;;;;;58.00;43.40;;;;;;;1.64;68.33;100207.77;108088;1287;23682;-77
2022/12/21 05:16:27;;;;;;;55.80;42.00;;;;;;;1.65;68.23;100207.27;108050;1286;23621;-75
2022/12/21 05:18:56;;;;;;;60.90;45.90;;;;;;;1.67;68.28;100211.20;108133;1285;23032;-76
2022/12/21 05:21:26;;;;;;;58.10;44.10;;;;;;;1.70;68.31;100224.06;108023;1287;21985;-76
2022/12/21 05:23:55;;;;;;;61.00;48.60;;;;;;;1.70;68.22;100221.66;108135;1286;21963;-77
2022/12/21 05:26:24;;;;;;;64.30;46.20;;;;;;;1.70;68.29;100223.38;108053;1276;21957;-75
2022/12/21 05:28:53;;;;;;;59.00;43.20;;;;;;;1.72;68.31;100218.05;108174;1286;23057;-76
2022/12/21 05:31:23;;;;;;;57.00;43.70;;;;;;;1.73;68.34;100221.30;107990;1289;23638;-76
2022/12/21 05:33:52;;;;;;;55.40;41.10;;;;;;;1.76;68.36;100221.63;108092;1283;21975;-76
2022/12/21 05:36:22;;;;;;;53.00;42.40;;;;;;;1.79;68.34;100218.37;107955;1286;23093;-76
2022/12/21 05:38:51;;;;;;;54.60;42.20;;;;;;;1.81;68.34;100210.98;108077;1286;21940;-77
2022/12/21 05:41:21;;;;;;;62.50;43.90;;;;;;;1.83;68.38;100205.48;107950;1283;23613;-76
2022/12/21 05:43:50;;;;;;;58.40;45.30;;;;;;;1.84;68.30;100200.33;108065;1286;23728;-76
2022/12/21 05:46:19;;;;;;;53.50;40.40;;;;;;;1.85;68.34;100200.33;108140;1283;21955;-77
2022/12/21 05:48:54;;;;;;;50.70;40.30;;;;;;;1.87;68.34;100199.46;108216;1283;23171;-77
2022/12/21 05:51:25;;;;;;;56.00;42.30;;;;;;;1.87;68.23;100196.03;108100;1286;21988;-77
2022/12/21 05:53:54;;;;;;;52.60;40.40;;;;;;;1.88;68.21;100189.84;108136;1285;21970;-77
2022/12/21 05:56:23;;;;;;;51.70;41.70;;;;;;;1.88;68.25;100182.11;107850;1287;21990;-76
2022/12/21 05:58:53;;;;;;;53.60;41.70;;;;;;;1.89;68.21;100178.00;108008;1286;23800;-77
2022/12/21 06:01:22;;;;;;;73.00;49.30;;;;;;;1.90;68.25;100172.51;107949;1287;21977;-76
2022/12/21 06:03:51;;;;;;;62.60;46.00;;;;;;;1.93;68.23;100179.34;107849;1287;23783;-77
2022/12/21 06:06:20;;;;;;;55.30;41.90;;;;;;;1.96;68.25;100183.28;108067;1283;21981;-77
2022/12/21 06:08:49;;;;;;;61.80;45.90;;;;;;;1.98;68.24;100185.33;108190;1286;22180;-78
2022/12/21 06:11:25;;;;;;;69.30;49.40;;;;;;;2.00;68.20;100185.83;108030;1286;21924;-76
2022/12/21 06:13:55;;;;;;;58.70;41.80;;;;;;;2.01;68.10;100188.91;108272;1286;21934;-77
2022/12/21 06:16:27;;;;;;;52.70;40.30;;;;;;;2.02;68.12;100183.94;108307;1285;23021;-78
2022/12/21 06:19:01;;;;;;;59.30;42.70;;;;;;;2.02;68.06;100184.96;108121;1286;22763;-83
2022/12/21 06:21:30;;;;;;;56.80;45.00;;;;;;;2.04;68.04;100189.08;108177;1286;21936;-78
2022/12/21 06:23:59;;;;;;;55.90;42.50;;;;;;;2.07;68.13;100185.45;108230;1284;22287;-77
2022/12/21 06:26:28;;;;;;;57.50;43.00;;;;;;;2.10;68.07;100187.84;108228;1286;21929;-78
2022/12/21 06:28:57;;;;;;;56.90;43.20;;;;;;;2.13;67.99;100196.40;108220;1286;21953;-78
2022/12/21 06:31:32;;;;;;;65.30;49.20;;;;;;;2.14;67.92;100203.95;108183;1286;21959;-77
2022/12/21 06:34:01;;;;;;;;;;;;;;;2.12;67.88;100200.87;107925;1286;21984;-76
2022/12/21 06:36:33;;;;;;;58.50;41.90;;;;;;;2.04;68.03;100203.84;108132;1286;22076;-77
2022/12/21 06:39:02;;;;;;;58.90;43.30;;;;;;;2.01;67.95;100202.30;107980;1285;24230;-76
2022/12/21 06:41:32;;;;;;;56.00;42.70;;;;;;;2.01;67.81;100199.73;108156;1286;22044;-76
2022/12/21 06:44:01;;;;;;;57.80;42.60;;;;;;;2.00;67.88;100201.11;108102;1285;22009;-77
2022/12/21 06:46:30;;;;;;;52.00;42.30;;;;;;;2.00;67.85;100203.52;108234;1283;24412;-76
2022/12/21 06:49:00;;;;;;;55.80;42.00;;;;;;;2.03;67.90;100206.77;108226;1276;23038;-77
2022/12/21 06:51:29;;;;;;;55.50;42.10;;;;;;;2.03;67.82;100209.85;107974;1286;22894;-76
2022/12/21 06:53:58;;;;;;;54.60;41.90;;;;;;;2.03;67.81;100212.08;108345;1282;21931;-75
2022/12/21 06:56:31;;;;;;;51.10;39.70;;;;;;;2.06;67.87;100213.79;108332;1280;21931;-75
2022/12/21 06:59:00;;;;;;;50.50;37.20;;;;;;;2.08;67.90;100212.22;107962;1285;21934;-78
2022/12/21 07:01:33;;;;;;;53.10;39.00;;;;;;;2.10;67.91;100212.38;108327;1282;21955;-77
2022/12/21 07:04:03;;;;;;;56.50;40.70;;;;;;;2.11;67.89;100212.56;108156;1285;22981;-78
2022/12/21 07:06:33;;;;;;;45.80;38.00;;;;;;;2.13;67.92;100214.77;108061;1286;21915;-77
2022/12/21 07:09:02;;;;;;;60.90;43.90;;;;;;;2.16;67.98;100218.70;108022;1285;24409;-78
2022/12/21 07:11:31;;;;;;;60.10;43.50;;;;;;;2.20;67.91;100219.38;107783;1287;21949;-79
2022/12/21 07:14:00;;;;;;;57.70;42.00;;;;;;;2.24;67.95;100216.95;108105;1287;21986;-84
2022/12/21 07:16:30;;;;;;;50.20;40.20;;;;;;;2.27;67.89;100208.00;107851;1285;22817;-81
2022/12/21 07:18:59;;;;;;;54.60;40.90;;;;;;;2.29;67.86;100205.40;108169;1285;21989;-76
2022/12/21 07:21:29;;;;;;;62.10;46.50;;;;;;;2.35;67.94;100205.89;107834;1285;22265;-78
2022/12/21 07:23:58;;;;;;;58.80;42.50;;;;;;;2.39;67.79;100205.52;108148;1285;22030;-81
2022/12/21 07:26:27;;;;;;;62.30;46.00;;;;;;;2.41;67.74;100209.80;107896;1283;21969;-79
2022/12/21 07:28:56;;;;;;;66.10;46.20;;;;;;;2.45;67.78;100208.73;108136;1285;21944;-78
2022/12/21 07:31:27;;;;;;;62.40;45.60;;;;;;;2.47;67.67;100211.14;108107;1286;21938;-80
2022/12/21 07:33:57;;;;;;;59.80;43.30;;;;;;;2.48;67.58;100205.46;107902;1287;21937;-77
2022/12/21 07:36:26;;;;;;;67.00;43.70;;;;;;;2.50;67.57;100199.77;107964;1287;23780;-79
2022/12/21 07:38:55;;;;;;;62.40;44.20;;;;;;;2.51;67.51;100197.71;107977;1287;23709;-84
2022/12/21 07:41:25;;;;;;;62.00;42.90;;;;;;;2.53;67.59;100193.73;108205;1287;23085;-81
2022/12/21 07:43:56;;;;;;;58.10;42.10;;;;;;;2.57;67.58;100190.96;107838;1288;22108;-82
2022/12/21 07:46:45;;;;;;;60.40;44.70;;;;;;;2.59;67.53;100183.73;107871;1284;23064;-78
2022/12/21 07:49:18;;;;;;;57.10;42.20;;;;;;;2.59;67.40;100180.13;107761;1288;23590;-78
2022/12/21 07:51:48;;;;;;;67.60;50.00;;;;;;;2.60;67.59;100181.49;107563;1284;21971;-78
2022/12/21 07:54:17;;;;;;;72.50;55.40;;;;;;;2.63;67.52;100180.42;107569;1288;22942;-78
2022/12/21 07:56:46;;;;;;;62.10;46.60;;;;;;;2.70;67.58;100183.30;107542;1288;23045;-78
2022/12/21 07:59:15;;;;;;;82.40;59.50;;;;;;;2.77;67.58;100185.30;107486;1292;23697;-78
2022/12/21 08:01:44;;;;;;;80.20;55.60;;;;;;;2.84;67.52;100186.46;107563;1287;21940;-78
2022/12/21 08:04:14;;;;;;;91.60;68.40;;;;;;;2.87;67.38;100186.75;107581;1291;24321;-78
2022/12/21 08:06:45;;;;;;;70.40;53.30;;;;;;;2.92;67.34;100186.72;107757;1287;22412;-79
2022/12/21 08:09:17;;;;;;;74.30;55.10;;;;;;;2.97;67.27;100180.99;107535;1291;21971;-78
2022/12/21 08:11:48;;;;;;;59.80;43.30;;;;;;;3.02;67.34;100183.54;107486;1294;21968;-84
2022/12/21 08:14:21;;;;;;;66.50;45.30;;;;;;;3.07;67.32;100188.30;107786;1292;21962;-78
2022/12/21 08:16:54;;;;;;;63.90;42.50;;;;;;;3.14;67.29;100199.93;107546;1292;22412;-79
2022/12/21 08:19:23;;;;;;;58.90;43.10;;;;;;;3.24;67.32;100208.24;107772;1292;21933;-78
2022/12/21 08:21:53;;;;;;;59.30;42.80;;;;;;;3.39;67.29;100204.48;107412;1295;21965;-77
2022/12/21 08:24:22;;;;;;;61.10;44.00;;;;;;;3.48;67.11;100204.21;107510;1292;21966;-79
2022/12/21 08:26:51;;;;;;;57.70;43.10;;;;;;;3.58;66.87;100196.36;107266;1292;21970;-79
2022/12/21 08:29:22;;;;;;;55.60;43.90;;;;;;;3.62;66.43;100195.45;107394;1291;23894;-82
2022/12/21 08:31:51;;;;;;;56.30;44.70;;;;;;;3.61;66.24;100191.67;107432;1292;21643;-82
2022/12/21 08:34:21;;;;;;;58.60;42.40;;;;;;;3.59;66.05;100191.70;107587;1289;21965;-80
2022/12/21 08:36:50;;;;;;;77.00;59.60;;;;;;;3.58;66.12;100192.06;106758;1288;1443125;-78
2022/12/21 08:39:20;;;;;;;57.00;42.90;;;;;;;3.60;66.03;100195.83;107576;1283;22287;-80
2022/12/21 08:41:49;;;;;;;53.60;42.90;;;;;;;3.60;66.02;100200.80;108120;1283;22422;-82
2022/12/21 08:44:18;;;;;;;58.20;42.90;;;;;;;3.62;66.03;100201.47;108218;1283;21995;-79
2022/12/21 08:46:47;;;;;;;53.80;42.10;;;;;;;3.67;66.09;100203.83;107909;1283;21930;-75
2022/12/21 08:49:17;;;;;;;53.20;41.30;;;;;;;3.73;66.12;100201.52;107914;1282;21942;-82
2022/12/21 08:51:46;;;;;;;52.80;42.20;;;;;;;3.79;66.01;100200.06;108164;1285;22699;-84
2022/12/21 08:54:15;;;;;;;56.00;42.20;;;;;;;3.84;65.90;100206.55;108147;1286;23715;-85
2022/12/21 08:56:46;;;;;;;58.00;44.70;;;;;;;3.89;65.73;100207.00;108294;1282;23053;-84
2022/12/21 08:59:15;;;;;;;70.70;50.30;;;;;;;3.94;65.78;100208.98;108375;1282;21984;-83
2022/12/21 09:01:47;;;;;;;;;;;;;;;4.05;65.80;100209.03;108279;1286;22895;-84
2022/12/21 09:04:20;;;;;;;57.90;42.20;;;;;;;4.03;65.61;100209.23;108235;1282;22717;-83
2022/12/21 09:06:52;;;;;;;60.40;46.30;;;;;;;4.09;65.67;100211.37;107830;1290;21964;-83
2022/12/21 09:09:21;;;;;;;56.30;45.40;;;;;;;4.20;65.67;100214.68;108035;1286;23868;-85
2022/12/21 09:11:50;;;;;;;58.80;43.70;;;;;;;4.28;65.43;100210.27;107387;1292;21962;-86
2022/12/21 09:14:23;;;;;;;57.40;45.50;;;;;;;4.30;64.99;100212.30;107456;1294;22430;-84
2022/12/21 09:16:53;;;;;;;52.30;41.50;;;;;;;4.31;64.83;100212.45;107614;1292;21973;-84
2022/12/21 09:19:27;;;;;;;49.70;40.00;;;;;;;4.31;64.93;100203.50;107680;1292;22331;-83
2022/12/21 09:21:56;;;;;;;54.40;41.40;;;;;;;4.35;64.82;100200.87;107062;1291;22751;-83
2022/12/21 09:24:32;;;;;;;51.60;40.30;;;;;;;4.37;64.62;100199.46;107130;1293;22110;-83
2022/12/21 09:27:08;;;;;;;51.40;39.30;;;;;;;4.38;64.49;100200.48;107431;1294;22743;-83
2022/12/21 09:29:40;;;;;;;51.40;39.80;;;;;;;4.43;64.73;100199.20;107755;1289;21950;-85
2022/12/21 09:32:12;;;;;;;54.30;39.50;;;;;;;4.47;64.63;100193.62;107888;1289;21953;-83
2022/12/21 09:34:45;;;;;;;54.20;40.20;;;;;;;4.45;64.30;100195.02;107380;1295;22236;-85
2022/12/21 09:37:16;;;;;;;48.20;37.10;;;;;;;4.40;64.15;100191.84;107621;1294;21942;-87
2022/12/21 09:39:56;;;;;;;55.30;38.40;;;;;;;4.37;64.34;100189.64;107508;1294;23011;-85
2022/12/21 09:43:05;;;;;;;56.40;40.20;;;;;;;4.37;64.31;100190.66;107335;1294;21939;-84
2022/12/21 09:45:58;;;;;;;51.10;37.00;;;;;;;4.36;64.40;100181.38;107482;1292;21974;-83
2022/12/21 09:48:40;;;;;;;47.10;37.30;;;;;;;4.35;64.43;100173.80;108147;1288;23727;-84
2022/12/21 09:51:25;;;;;;;55.50;39.60;;;;;;;4.32;64.28;100170.58;108106;1288;21953;-83
2022/12/21 09:54:02;;;;;;;48.70;38.70;;;;;;;4.29;64.43;100174.24;108484;1282;21964;-85
2022/12/21 09:56:39;;;;;;;51.80;39.30;;;;;;;4.30;64.62;100174.93;108425;1285;22349;-82
2022/12/21 09:59:13;;;;;;;53.50;42.40;;;;;;;4.30;64.61;100173.71;108486;1282;22714;-83
2022/12/21 10:02:43;;;;;;;54.30;42.50;;;;;;;4.32;64.73;100173.86;107856;1289;23713;-83
2022/12/21 10:05:34;;;;;;;55.50;44.80;;;;;;;4.24;64.61;100168.98;107411;1294;22964;-83
2022/12/21 10:09:00;;;;;;;50.40;41.70;;;;;;;4.17;64.79;100171.67;107597;1283;23697;-82
2022/12/21 10:11:53;;;;;;;55.10;45.30;;;;;;;4.10;65.05;100173.16;107349;1295;21972;-83
2022/12/21 10:15:09;;;;;;;53.20;43.20;;;;;;;4.10;65.17;100181.41;107001;1294;23093;-84
2022/12/21 10:18:20;;;;;;;53.50;40.80;;;;;;;4.04;65.09;100178.73;106909;1298;21964;-85
2022/12/21 10:21:17;;;;;;;53.90;42.60;;;;;;;3.95;65.18;100178.52;106887;1298;22419;-84
2022/12/21 10:23:51;;;;;;;48.40;36.00;;;;;;;3.94;65.60;100178.18;106937;1298;21953;-82
2022/12/21 10:26:25;;;;;;;54.10;39.80;;;;;;;3.96;65.49;100180.75;106870;1292;23647;-83
2022/12/21 10:29:04;;;;;;;60.60;45.10;;;;;;;3.97;65.64;100174.19;106852;1300;21970;-84
2022/12/21 10:31:45;;;;;;;53.80;39.10;;;;;;;4.09;66.02;100164.55;106521;1301;21961;-84
2022/12/21 10:34:31;;;;;;;58.60;43.30;;;;;;;4.10;65.84;100162.45;107196;1298;22197;-82
2022/12/21 10:37:16;;;;;;;61.70;46.60;;;;;;;4.16;65.93;100156.36;107193;1298;22030;-82
2022/12/21 10:39:55;;;;;;;69.00;50.70;;;;;;;4.23;66.03;100152.27;107189;1298;21953;-81
2022/12/21 10:42:40;;;;;;;62.10;48.60;;;;;;;4.28;65.87;100149.45;107480;1295;21976;-82
2022/12/21 10:45:17;;;;;;;58.00;44.70;;;;;;;4.33;65.94;100155.23;107297;1294;21972;-84
2022/12/21 10:47:54;;;;;;;51.30;41.60;;;;;;;4.34;65.65;100157.65;107441;1278;22436;-85
2022/12/21 10:50:37;;;;;;;55.90;42.40;;;;;;;4.31;65.54;100152.01;107635;1281;23094;-84
2022/12/21 10:53:27;;;;;;;55.00;46.70;;;;;;;4.33;65.66;100145.95;107789;1281;22372;-83
2022/12/21 10:55:58;;;;;;;52.10;42.40;;;;;;;4.33;65.60;100140.77;107593;1289;23652;-85
2022/12/21 10:58:31;;;;;;;59.40;47.20;;;;;;;4.35;65.67;100137.30;108343;1283;23692;-84
2022/12/21 11:01:23;;;;;;;63.90;50.30;;;;;;;4.34;65.50;100139.02;108362;1277;22550;-85
2022/12/21 11:04:26;;;;;;;;;;;;;;;4.32;65.47;100140.43;108099;1280;22905;-83
2022/12/21 11:07:38;;;;;;;70.40;49.80;;;;;;;4.24;65.75;100130.73;108228;1288;21949;-83
2022/12/21 11:10:30;;;;;;;62.00;45.10;;;;;;;4.22;65.76;100123.02;108241;1274;23030;-82
2022/12/21 11:13:23;;;;;;;66.50;49.70;;;;;;;4.20;65.56;100116.67;107984;1288;23123;-83
2022/12/21 11:16:04;;;;;;;91.50;64.40;;;;;;;4.22;65.60;100123.37;108054;1288;21963;-83
2022/12/21 11:18:45;;;;;;;85.70;62.20;;;;;;;4.24;65.47;100125.75;108111;1288;22046;-84
2022/12/21 11:21:32;;;;;;;85.30;67.40;;;;;;;4.26;65.74;100129.00;108088;1283;21955;-84
2022/12/21 11:24:20;;;;;;;95.00;70.30;;;;;;;4.31;65.76;100132.70;108565;1286;22602;-83
2022/12/21 11:27:23;;;;;;;102.10;74.20;;;;;;;4.30;65.53;100129.61;108660;1283;23089;-86
2022/12/21 11:30:08;;;;;;;72.90;58.30;;;;;;;4.28;65.57;100133.08;108349;1279;21972;-83
2022/12/21 11:32:45;;;;;;;78.10;62.00;;;;;;;4.24;65.46;100126.95;108474;1267;21956;-81
2022/12/21 11:35:26;;;;;;;80.30;65.40;;;;;;;4.17;65.42;100120.35;108134;1282;24060;-79
2022/12/21 11:38:09;;;;;;;71.60;56.90;;;;;;;4.14;65.49;100119.34;108417;1283;21970;-79
2022/12/21 11:40:38;;;;;;;89.40;76.80;;;;;;;4.17;65.64;100117.58;108399;1277;23107;-81
2022/12/21 11:43:17;;;;;;;69.10;59.70;;;;;;;4.20;65.72;100117.54;108312;1276;22088;-80
2022/12/21 11:46:01;;;;;;;75.90;62.60;;;;;;;4.22;65.79;100118.19;108351;1282;23714;-80
2022/12/21 11:49:12;;;;;;;76.70;59.00;;;;;;;4.22;65.85;100116.47;108292;1282;22332;-79
2022/12/21 11:52:01;;;;;;;87.40;62.90;;;;;;;4.18;65.77;100116.89;108679;1282;23637;-80
2022/12/21 11:54:53;;;;;;;78.30;60.40;;;;;;;4.13;65.98;100115.23;108433;1273;21952;-82
2022/12/21 11:57:38;;;;;;;76.20;56.40;;;;;;;4.08;66.12;100118.58;108412;1273;22080;-81
2022/12/21 12:00:14;;;;;;;76.10;56.50;;;;;;;4.05;66.23;100116.05;108485;1274;22439;-80
2022/12/21 12:03:46;;;;;;;78.20;58.90;;;;;;;4.01;66.39;100111.96;108397;1282;22523;-80
2022/12/21 12:06:52;;;;;;;74.80;57.50;;;;;;;3.98;66.65;100109.08;107960;1287;21951;-79
2022/12/21 12:10:03;;;;;;;80.60;59.90;;;;;;;3.97;66.89;100106.86;107956;1286;23525;-81
2022/12/21 12:13:00;;;;;;;82.10;62.40;;;;;;;3.96;67.12;100108.09;107952;1280;22920;-81